createdAt,value
2019-06-07T00:02:34.563Z,89.20
2019-06-07T00:07:38.401Z,75.20
2019-06-07T00:12:42.167Z,82.13
2019-06-07T00:17:45.896Z,90.23
2019-06-07T00:22:49.611Z,82.47
2019-06-07T00:27:53.620Z,78.73
2019-06-07T00:32:57.587Z,79.50
2019-06-07T00:38:01.351Z,73.43
2019-06-07T00:43:05.191Z,73.47
2019-06-07T00:48:08.966Z,82.27
2019-06-07T00:53:17.568Z,79.50
2019-06-07T00:58:21.925Z,87.60
2019-06-07T01:03:25.845Z,66.93
2019-06-07T01:08:30.243Z,62.20
2019-06-07T01:13:34.123Z,75.03
2019-06-07T01:18:43.577Z,74.83
2019-06-07T01:28:48.716Z,77.00
2019-06-07T01:33:52.413Z,55.93
2019-06-07T01:38:56.140Z,64.17
2019-06-07T01:43:59.892Z,57.70
2019-06-07T01:49:03.694Z,67.87
2019-06-07T01:54:49.697Z,70.27
2019-06-07T01:59:12.930Z,73.13
2019-06-07T02:04:19.227Z,62.50
2019-06-07T02:09:23.557Z,62.17
2019-06-07T02:14:32.461Z,62.70
2019-06-07T02:19:33.611Z,77.97
2019-06-07T02:24:37.658Z,71.77
2019-06-07T02:29:41.395Z,66.07
2019-06-07T02:34:45.644Z,67.50
2019-06-07T02:39:49.355Z,75.20
2019-06-07T02:44:53.172Z,84.73
2019-06-07T02:49:56.937Z,80.33
2019-06-07T02:55:00.700Z,73.53
2019-06-07T03:00:39.039Z,70.87
2019-06-07T03:05:12.568Z,77.87
2019-06-07T03:10:16.794Z,78.10
2019-06-07T03:15:33.017Z,64.30
2019-06-07T03:20:28.067Z,74.70
2019-06-07T03:25:38.856Z,74.27
2019-06-07T03:31:00.952Z,76.73
2019-06-07T03:35:48.466Z,62.33
2019-06-07T03:40:52.209Z,65.00
2019-06-07T03:45:56.082Z,77.00
2019-06-07T03:51:04.516Z,59.27
2019-06-07T03:56:05.545Z,66.83
2019-06-07T04:01:09.423Z,66.30
2019-06-07T04:06:13.240Z,61.17
2019-06-07T04:11:16.992Z,67.30
2019-06-07T04:16:21.007Z,66.90
2019-06-07T04:21:24.999Z,73.93
2019-06-07T04:26:31.408Z,60.87
2019-06-07T04:31:36.290Z,64.30
2019-06-07T04:36:55.823Z,60.57
2019-06-07T04:41:47.243Z,65.00
2019-06-07T04:46:53.312Z,76.73
2019-06-07T04:51:57.966Z,71.83
2019-06-07T04:57:01.711Z,80.97
2019-06-07T05:02:05.533Z,105.10
2019-06-07T05:07:09.307Z,115.40
2019-06-07T05:12:13.119Z,109.37
2019-06-07T05:17:16.828Z,74.27
2019-06-07T05:22:20.574Z,110.80
2019-06-07T05:27:24.488Z,86.03
2019-06-07T05:32:28.253Z,93.60
2019-06-07T05:37:33.786Z,91.17
2019-06-07T05:42:41.132Z,44.30
2019-06-07T05:47:50.416Z,139.50
2019-06-07T05:52:48.592Z,30.17
2019-06-07T05:57:52.326Z,147.83
2019-06-07T06:03:04.724Z,33.03
2019-06-07T06:08:01.516Z,41.70
2019-06-07T06:13:05.631Z,37.63
2019-06-07T06:18:09.350Z,55.80
2019-06-07T06:23:13.359Z,127.97
2019-06-07T06:28:17.219Z,72.03
2019-06-07T06:33:33.422Z,999.90
2019-06-07T06:38:26.434Z,999.90
2019-06-07T06:43:30.163Z,999.90
2019-06-07T06:48:33.901Z,870.70
2019-06-07T06:53:40.051Z,999.90
2019-06-07T06:59:21.427Z,999.90
2019-06-07T07:04:09.153Z,999.90
2019-06-07T07:08:54.226Z,999.90
2019-06-07T07:13:59.131Z,948.00
2019-06-07T07:19:02.870Z,838.47
2019-06-07T07:24:21.043Z,769.10
2019-06-07T07:29:12.306Z,999.90
2019-06-07T07:39:21.566Z,999.90
2019-06-07T07:44:25.318Z,999.90
2019-06-07T07:49:29.371Z,999.90
2019-06-07T07:54:33.128Z,996.90
2019-06-07T07:59:42.162Z,967.20
2019-06-07T08:05:13.463Z,990.60
2019-06-07T08:09:50.438Z,999.90
2019-06-07T08:14:57.596Z,979.10
2019-06-07T08:20:02.968Z,823.53
2019-06-07T08:25:05.067Z,999.90
2019-06-07T08:30:46.457Z,999.90
2019-06-07T08:36:01.002Z,834.57
2019-06-07T08:40:23.640Z,999.90
2019-06-07T08:45:27.591Z,885.47
2019-06-07T08:50:31.312Z,868.50
2019-06-07T08:55:35.038Z,917.87
2019-06-07T09:00:47.492Z,671.13
2019-06-07T09:05:44.358Z,667.47
2019-06-07T09:10:48.134Z,683.30
2019-06-07T09:15:53.693Z,639.50
2019-06-07T09:21:00.239Z,814.83
2019-06-07T09:26:15.327Z,617.47
2019-06-07T09:31:10.545Z,907.13
2019-06-07T09:36:13.929Z,860.10
2019-06-07T09:41:17.747Z,715.17
2019-06-07T09:46:21.535Z,938.27
2019-06-07T09:51:25.297Z,908.67
2019-06-07T09:56:29.343Z,987.43
2019-06-07T10:01:33.142Z,711.20
2019-06-07T10:06:36.865Z,569.07
2019-06-07T10:11:40.878Z,937.53
2019-06-07T10:16:46.640Z,648.13
2019-06-07T10:21:50.824Z,864.80
2019-06-07T10:26:54.570Z,677.67
2019-06-07T10:31:59.968Z,684.10
2019-06-07T10:37:07.632Z,541.63
2019-06-07T10:42:09.683Z,999.90
2019-06-07T10:47:13.734Z,992.13
2019-06-07T10:52:17.767Z,899.80
2019-06-07T10:57:21.583Z,831.73
2019-06-07T11:02:25.389Z,783.20
2019-06-07T11:07:29.509Z,707.53
2019-06-07T11:12:33.312Z,653.47
2019-06-07T11:17:38.182Z,661.30
2019-06-07T11:22:42.195Z,943.03
2019-06-07T11:27:46.214Z,720.73
2019-06-07T11:32:50.053Z,999.90
2019-06-07T11:37:53.816Z,999.90
2019-06-07T11:42:57.590Z,648.93
2019-06-07T11:48:01.366Z,875.00
2019-06-07T11:53:06.350Z,999.90
2019-06-07T11:58:14.379Z,999.90
2019-06-07T12:03:16.047Z,658.33
2019-06-07T12:08:19.830Z,552.60
2019-06-07T12:13:26.753Z,999.90
2019-06-07T12:18:29.072Z,999.90
2019-06-07T12:23:32.835Z,999.90
2019-06-07T12:28:36.647Z,999.90
2019-06-07T12:33:40.394Z,923.53
2019-06-07T12:38:44.195Z,999.90
2019-06-07T12:43:48.187Z,999.90
2019-06-07T12:48:53.976Z,922.33
2019-06-07T12:53:58.295Z,793.30
2019-06-07T12:59:02.075Z,870.00
2019-06-07T13:04:06.099Z,827.53
2019-06-07T13:09:10.330Z,880.50
2019-06-07T13:14:15.900Z,999.90
2019-06-07T13:19:20.113Z,999.27
2019-06-07T13:24:25.154Z,999.90
2019-06-07T13:29:31.748Z,977.63
2019-06-07T13:34:35.291Z,942.73
2019-06-07T13:39:39.120Z,999.90
2019-06-07T13:44:43.048Z,945.40
2019-06-07T13:49:47.159Z,999.90
2019-06-07T13:54:51.997Z,999.90
2019-06-07T13:59:56.480Z,999.90
2019-06-07T14:05:00.248Z,979.83
2019-06-07T14:10:04.542Z,999.90
2019-06-07T14:15:09.074Z,999.90
2019-06-07T14:20:13.829Z,999.90
2019-06-07T14:25:18.317Z,999.90
2019-06-07T14:30:23.804Z,999.90
2019-06-07T14:35:28.889Z,999.90
2019-06-07T14:40:34.104Z,999.90
2019-06-07T14:45:38.978Z,999.90
2019-06-07T14:50:43.274Z,999.90
2019-06-07T14:55:47.319Z,999.90
2019-06-07T15:00:51.071Z,999.90
2019-06-07T15:05:54.805Z,943.57
2019-06-07T15:10:59.001Z,999.50
2019-06-07T15:16:02.870Z,944.67
2019-06-07T15:21:06.632Z,999.90
2019-06-07T15:26:10.696Z,943.40
2019-06-07T15:31:16.325Z,999.90
2019-06-07T15:36:20.244Z,999.90
2019-06-07T15:41:24.568Z,752.27
2019-06-07T15:46:29.442Z,999.90
2019-06-07T15:51:34.454Z,900.90
2019-06-07T15:56:39.105Z,998.30
2019-06-07T16:01:43.415Z,897.90
2019-06-07T16:06:47.457Z,874.20
2019-06-07T16:11:51.589Z,909.20
2019-06-07T16:16:55.640Z,879.90
2019-06-07T16:21:59.975Z,868.07
2019-06-07T16:27:03.895Z,904.10
2019-06-07T16:32:08.602Z,829.07
2019-06-07T16:37:12.893Z,806.77
2019-06-07T16:42:16.866Z,966.90
2019-06-07T16:47:20.891Z,947.80
2019-06-07T16:52:24.824Z,999.90
2019-06-07T16:57:29.448Z,999.90
2019-06-07T17:02:33.710Z,999.90
2019-06-07T17:07:38.414Z,918.53
2019-06-07T17:12:44.822Z,999.90
2019-06-07T17:17:50.992Z,999.90
2019-06-07T17:22:54.846Z,999.90
2019-06-07T17:27:58.671Z,999.90
2019-06-07T17:33:02.494Z,999.90
2019-06-07T17:38:07.347Z,998.07
2019-06-07T17:43:11.701Z,999.90
2019-06-07T17:48:16.084Z,999.17
2019-06-07T17:53:20.011Z,929.20
2019-06-07T17:58:24.931Z,967.33
2019-06-07T18:03:30.185Z,995.53
2019-06-07T18:08:36.076Z,988.70
2019-06-07T18:13:40.728Z,999.90
2019-06-07T18:18:46.574Z,999.90
2019-06-07T18:23:52.964Z,999.90
2019-06-07T18:28:59.312Z,999.90
2019-06-07T18:34:05.265Z,999.90
2019-06-07T18:39:10.694Z,999.90
2019-06-07T18:44:21.925Z,999.90
2019-06-07T18:49:26.711Z,999.90
2019-06-07T18:54:32.352Z,999.90
2019-06-07T18:59:37.767Z,999.90
2019-06-07T19:04:44.516Z,999.90
2019-06-07T19:09:50.785Z,999.90
2019-06-07T19:14:57.521Z,999.90
2019-06-07T19:20:03.665Z,984.33
2019-06-07T19:25:09.597Z,496.07
2019-06-07T19:30:16.352Z,138.87
2019-06-07T19:35:21.710Z,59.67
2019-06-07T19:40:27.626Z,31.33
2019-06-07T19:45:32.712Z,95.07
2019-06-07T19:50:40.670Z,67.20
2019-06-07T19:55:46.367Z,117.37
2019-06-07T20:00:51.185Z,115.93
2019-06-07T20:05:56.117Z,121.87
2019-06-07T20:11:02.749Z,111.37
2019-06-07T20:16:08.160Z,78.87
2019-06-07T20:21:12.917Z,132.60
2019-06-07T20:26:17.869Z,127.97
2019-06-07T20:31:22.491Z,118.67
2019-06-07T20:36:28.299Z,111.70
2019-06-07T20:41:33.669Z,133.80
2019-06-07T20:46:39.023Z,121.00
2019-06-07T20:51:44.227Z,111.73
2019-06-07T20:56:48.840Z,109.60
2019-06-07T21:01:53.304Z,137.63
2019-06-07T21:06:59.203Z,135.93
2019-06-07T21:12:05.786Z,127.40
2019-06-07T21:17:10.760Z,108.73
2019-06-07T21:22:16.799Z,108.60
2019-06-07T21:27:21.220Z,117.20
2019-06-07T21:32:26.489Z,117.30
2019-06-07T21:37:30.623Z,124.87
2019-06-07T21:42:35.535Z,112.97
2019-06-07T21:47:40.545Z,120.73
2019-06-07T21:52:44.646Z,119.00
2019-06-07T21:57:49.718Z,113.87
2019-06-07T22:02:54.760Z,121.30
2019-06-07T22:08:00.118Z,116.73
2019-06-07T22:13:06.118Z,112.17
2019-06-07T22:18:10.843Z,112.67
2019-06-07T22:23:14.935Z,113.63
2019-06-07T22:28:18.852Z,106.93
2019-06-07T22:33:22.857Z,101.67
2019-06-07T22:38:26.672Z,108.90
2019-06-07T22:43:30.657Z,100.77
2019-06-07T22:48:37.843Z,98.40
2019-06-07T22:53:42.482Z,89.80
2019-06-07T22:58:47.945Z,96.77
2019-06-07T23:03:54.275Z,92.77
2019-06-07T23:08:58.320Z,96.90
2019-06-07T23:14:02.047Z,88.93
2019-06-07T23:19:05.898Z,83.60
2019-06-07T23:24:09.955Z,94.07
2019-06-07T23:29:14.522Z,95.93
2019-06-07T23:34:21.033Z,90.13
2019-06-07T23:39:26.683Z,85.70
2019-06-07T23:44:32.183Z,89.30
2019-06-07T23:49:35.987Z,87.23
2019-06-07T23:54:39.982Z,85.37
2019-06-07T23:59:44.092Z,87.30
